Time,TemperatureF,DewpointF,PressureIn,WindDirection,WindDirectionDegrees,WindSpeedMPH,WindSpeedGustMPH,Humidity,HourlyPrecipIn,Conditions,Clouds,dailyrainin,SolarRadiationWatts/m^2,SoftwareType,DateUTC
2013-03-08 00:02:00,40.0,32.0,-100.00,North,11,0.0,0.0,72,0.00,,,0.06,0.000000,,2013-03-08 05:02:00,
2013-03-08 00:12:00,40.0,32.0,-100.00,North,11,0.0,0.0,72,0.00,,,0.06,0.000000,,2013-03-08 05:12:00,
2013-03-08 00:22:00,40.0,32.0,-100.00,North,11,0.0,0.0,72,0.00,,,0.06,0.000000,,2013-03-08 05:22:00,
2013-03-08 00:52:00,39.0,31.0,-100.00,North,358,0.0,0.0,72,0.00,,,0.01,0.000000,,2013-03-08 05:52:00,
2013-03-08 01:02:00,39.0,31.0,-100.00,North,358,0.0,0.0,72,0.00,,,0.01,0.000000,,2013-03-08 06:02:00,
2013-03-08 01:11:00,39.0,31.0,-100.00,North,358,0.0,0.0,72,0.00,,,0.01,0.000000,,2013-03-08 06:11:00,
2013-03-08 01:22:00,39.0,31.0,-100.00,North,358,0.0,0.0,72,0.00,,,0.01,0.000000,,2013-03-08 06:22:00,
2013-03-08 01:52:00,39.0,32.0,-100.00,North,356,0.0,0.0,75,0.00,,,0.00,0.000000,,2013-03-08 06:52:00,
2013-03-08 02:01:00,39.0,32.0,-100.00,North,356,0.0,0.0,75,0.00,,,0.00,0.000000,,2013-03-08 07:01:00,
2013-03-08 02:11:00,39.0,32.0,-100.00,North,356,0.0,0.0,75,0.00,,,0.00,0.000000,,2013-03-08 07:11:00,
2013-03-08 02:22:00,39.0,32.0,-100.00,North,356,0.0,0.0,75,0.00,,,0.00,0.000000,,2013-03-08 07:22:00,
2013-03-08 02:52:00,38.0,32.0,-100.00,North,352,0.0,0.0,79,0.00,,,0.00,0.000000,,2013-03-08 07:52:00,
2013-03-08 03:02:00,38.0,32.0,-100.00,North,352,0.0,0.0,79,0.00,,,0.00,0.000000,,2013-03-08 08:02:00,
2013-03-08 03:11:00,38.0,32.0,-100.00,North,352,0.0,0.0,79,0.00,,,0.00,0.000000,,2013-03-08 08:11:00,
2013-03-08 03:22:00,38.0,32.0,-100.00,North,352,0.0,0.0,79,0.00,,,0.00,0.000000,,2013-03-08 08:22:00,
2013-03-08 03:52:00,38.0,23.0,-100.00,NW,318,0.0,0.0,55,0.00,,,0.00,0.000000,,2013-03-08 08:52:00,
2013-03-08 04:03:00,38.0,23.0,-100.00,NW,318,0.0,0.0,55,0.00,,,0.00,0.000000,,2013-03-08 09:03:00,
2013-03-08 04:11:00,38.0,23.0,-100.00,NW,318,0.0,0.0,55,0.00,,,0.00,0.000000,,2013-03-08 09:11:00,
2013-03-08 04:22:00,38.0,23.0,-100.00,NW,318,0.0,0.0,55,0.00,,,0.00,0.000000,,2013-03-08 09:22:00,
2013-03-08 04:52:00,36.0,23.0,-100.00,NW,311,0.0,0.0,58,0.00,,,0.00,0.000000,,2013-03-08 09:52:00,
2013-03-08 05:01:00,36.0,23.0,-100.00,NW,311,0.0,0.0,58,0.00,,,0.00,0.000000,,2013-03-08 10:01:00,
2013-03-08 05:11:00,36.0,23.0,-100.00,NW,311,0.0,0.0,58,0.00,,,0.00,0.000000,,2013-03-08 10:11:00,
2013-03-08 05:21:00,36.0,23.0,-100.00,NW,311,0.0,0.0,58,0.00,,,0.00,0.000000,,2013-03-08 10:21:00,
2013-03-08 05:52:00,35.0,22.0,-100.00,NW,309,0.0,0.0,58,0.00,,,0.00,0.000000,,2013-03-08 10:52:00,
2013-03-08 06:01:00,35.0,22.0,-100.00,NW,309,0.0,0.0,58,0.00,,,0.00,0.000000,,2013-03-08 11:01:00,
2013-03-08 06:11:00,35.0,22.0,-100.00,NW,309,0.0,0.0,58,0.00,,,0.00,0.000000,,2013-03-08 11:11:00,
2013-03-08 06:22:00,35.0,22.0,-100.00,NW,309,0.0,0.0,58,0.00,,,0.00,0.000000,,2013-03-08 11:22:00,
2013-03-08 06:52:00,35.0,21.0,-100.00,NW,310,0.0,0.0,57,0.00,,,0.00,0.000000,,2013-03-08 11:52:00,
2013-03-08 07:02:00,35.0,21.0,-100.00,NW,310,0.0,0.0,57,0.00,,,0.00,0.000000,,2013-03-08 12:02:00,
2013-03-08 07:11:00,35.0,21.0,-100.00,NW,310,0.0,0.0,57,0.00,,,0.00,0.000000,,2013-03-08 12:11:00,
2013-03-08 07:22:00,35.0,21.0,-100.00,NW,310,0.0,0.0,57,0.00,,,0.00,0.000000,,2013-03-08 12:22:00,
2013-03-08 07:53:00,35.0,22.0,-100.00,NW,323,0.0,0.0,58,0.00,,,0.00,11.000000,,2013-03-08 12:53:00,
2013-03-08 08:02:00,35.0,22.0,-100.00,NW,323,0.0,0.0,58,0.00,,,0.00,11.000000,,2013-03-08 13:02:00,
2013-03-08 08:12:00,35.0,22.0,-100.00,NW,323,0.0,0.0,58,0.00,,,0.00,11.000000,,2013-03-08 13:12:00,
2013-03-08 08:22:00,35.0,22.0,-100.00,NW,323,0.0,0.0,58,0.00,,,0.00,11.000000,,2013-03-08 13:22:00,
2013-03-08 08:52:00,33.0,29.0,-100.00,NW,321,0.0,0.0,84,0.00,,,0.00,71.000000,,2013-03-08 13:52:00,
2013-03-08 09:03:00,33.0,29.0,-100.00,NW,321,0.0,0.0,84,0.00,,,0.00,71.000000,,2013-03-08 14:03:00,
2013-03-08 09:12:00,33.0,29.0,-100.00,NW,321,0.0,0.0,84,0.00,,,0.00,71.000000,,2013-03-08 14:12:00,
2013-03-08 09:22:00,33.0,29.0,-100.00,NW,321,0.0,0.0,84,0.00,,,0.00,71.000000,,2013-03-08 14:22:00,
2013-03-08 09:53:00,34.0,31.0,-100.00,NW,312,0.0,0.0,89,0.00,,,0.00,175.000000,,2013-03-08 14:53:00,
2013-03-08 10:03:00,34.0,31.0,-100.00,NW,312,0.0,0.0,89,0.00,,,0.00,175.000000,,2013-03-08 15:03:00,
2013-03-08 10:12:00,34.0,31.0,-100.00,NW,312,0.0,0.0,89,0.00,,,0.00,175.000000,,2013-03-08 15:12:00,
2013-03-08 10:22:00,34.0,31.0,-100.00,NW,312,0.0,0.0,89,0.00,,,0.00,175.000000,,2013-03-08 15:22:00,
2013-03-08 10:53:00,34.0,32.0,-100.00,NW,314,0.0,0.0,92,0.00,,,0.00,191.000000,,2013-03-08 15:53:00,
2013-03-08 11:02:00,34.0,32.0,-100.00,NW,314,0.0,0.0,92,0.00,,,0.00,191.000000,,2013-03-08 16:02:00,
2013-03-08 11:12:00,34.0,32.0,-100.00,NW,314,0.0,0.0,92,0.00,,,0.00,191.000000,,2013-03-08 16:12:00,
2013-03-08 11:22:00,34.0,32.0,-100.00,NW,314,0.0,0.0,92,0.00,,,0.00,191.000000,,2013-03-08 16:22:00,
2013-03-08 11:52:00,36.0,34.0,-100.00,NW,315,0.0,0.0,92,0.01,,,0.01,247.000000,,2013-03-08 16:52:00,
2013-03-08 12:03:00,36.0,34.0,-100.00,NW,315,0.0,0.0,92,0.01,,,0.01,247.000000,,2013-03-08 17:03:00,
2013-03-08 12:12:00,36.0,34.0,-100.00,NW,315,0.0,0.0,92,0.01,,,0.01,247.000000,,2013-03-08 17:12:00,
2013-03-08 12:21:00,36.0,34.0,-100.00,NW,315,0.0,0.0,92,0.01,,,0.01,247.000000,,2013-03-08 17:21:00,
2013-03-08 12:52:00,37.0,34.0,-100.00,NW,320,0.0,0.0,88,0.00,,,0.01,253.000000,,2013-03-08 17:52:00,
2013-03-08 13:02:00,37.0,34.0,-100.00,NW,320,0.0,0.0,88,0.00,,,0.01,253.000000,,2013-03-08 18:02:00,
2013-03-08 13:12:00,37.0,34.0,-100.00,NW,320,0.0,0.0,88,0.00,,,0.01,253.000000,,2013-03-08 18:12:00,
2013-03-08 13:22:00,37.0,34.0,-100.00,NW,320,0.0,0.0,88,0.00,,,0.01,253.000000,,2013-03-08 18:22:00,
2013-03-08 13:52:00,41.0,33.0,-100.00,NNW,339,0.0,0.0,72,0.00,,,0.01,276.000000,,2013-03-08 18:52:00,
2013-03-08 14:02:00,41.0,33.0,-100.00,NNW,339,0.0,0.0,72,0.00,,,0.01,276.000000,,2013-03-08 19:02:00,
2013-03-08 14:11:00,41.0,33.0,-100.00,NNW,339,0.0,0.0,72,0.00,,,0.01,276.000000,,2013-03-08 19:11:00,
2013-03-08 14:22:00,41.0,33.0,-100.00,NNW,339,0.0,0.0,72,0.00,,,0.01,276.000000,,2013-03-08 19:22:00,
2013-03-08 14:52:00,41.0,33.0,-100.00,North,355,0.0,0.0,73,0.00,,,0.01,250.000000,,2013-03-08 19:52:00,
2013-03-08 15:02:00,41.0,33.0,-100.00,North,355,0.0,0.0,73,0.00,,,0.01,250.000000,,2013-03-08 20:02:00,
2013-03-08 15:11:00,41.0,33.0,-100.00,North,355,0.0,0.0,73,0.00,,,0.01,250.000000,,2013-03-08 20:11:00,
2013-03-08 15:22:00,41.0,33.0,-100.00,North,355,0.0,0.0,73,0.00,,,0.01,250.000000,,2013-03-08 20:22:00,
2013-03-08 15:53:00,41.0,33.0,-100.00,NNW,348,0.0,0.0,73,0.00,,,0.01,198.000000,,2013-03-08 20:53:00,
2013-03-08 16:02:00,41.0,33.0,-100.00,NNW,348,0.0,0.0,73,0.00,,,0.01,198.000000,,2013-03-08 21:02:00,
2013-03-08 16:12:00,41.0,33.0,-100.00,NNW,348,0.0,0.0,73,0.00,,,0.01,198.000000,,2013-03-08 21:12:00,
2013-03-08 16:22:00,41.0,33.0,-100.00,NNW,348,0.0,0.0,73,0.00,,,0.01,198.000000,,2013-03-08 21:22:00,
2013-03-08 16:52:00,42.0,34.0,-100.00,North,354,0.0,0.0,72,0.00,,,0.01,118.000000,,2013-03-08 21:52:00,
2013-03-08 17:02:00,42.0,34.0,-100.00,North,354,0.0,0.0,72,0.00,,,0.01,118.000000,,2013-03-08 22:02:00,
2013-03-08 17:12:00,42.0,34.0,-100.00,North,354,0.0,0.0,72,0.00,,,0.01,118.000000,,2013-03-08 22:12:00,
2013-03-08 17:22:00,42.0,34.0,-100.00,North,354,0.0,0.0,72,0.00,,,0.01,118.000000,,2013-03-08 22:22:00,
2013-03-08 17:53:00,42.0,34.0,-100.00,North,352,0.0,0.0,72,0.00,,,0.01,41.000000,,2013-03-08 22:53:00,
2013-03-08 18:02:00,42.0,34.0,-100.00,North,352,0.0,0.0,72,0.00,,,0.01,41.000000,,2013-03-08 23:02:00,
2013-03-08 18:12:00,42.0,34.0,-100.00,North,352,0.0,0.0,72,0.00,,,0.01,41.000000,,2013-03-08 23:12:00,
2013-03-08 18:22:00,42.0,34.0,-100.00,North,352,0.0,0.0,72,0.00,,,0.01,41.000000,,2013-03-08 23:22:00,
2013-03-08 18:53:00,42.0,34.0,-100.00,North,357,0.0,0.0,74,0.00,,,0.01,4.000000,,2013-03-08 23:53:00,
2013-03-08 19:02:00,42.0,34.0,-100.00,North,357,0.0,0.0,74,0.00,,,0.01,4.000000,,2013-03-09 00:02:00,
2013-03-08 19:12:00,42.0,34.0,-100.00,North,357,0.0,0.0,74,0.00,,,0.01,4.000000,,2013-03-09 00:12:00,
2013-03-08 19:22:00,42.0,34.0,-100.00,North,357,0.0,0.0,74,0.00,,,0.01,4.000000,,2013-03-09 00:22:00,
2013-03-08 19:52:00,42.0,33.0,-100.00,North,357,0.0,0.0,71,0.00,,,0.01,0.000000,,2013-03-09 00:52:00,
2013-03-08 20:02:00,42.0,33.0,-100.00,North,357,0.0,0.0,71,0.00,,,0.01,0.000000,,2013-03-09 01:02:00,
2013-03-08 20:12:00,42.0,33.0,-100.00,North,357,0.0,0.0,71,0.00,,,0.01,0.000000,,2013-03-09 01:12:00,
2013-03-08 20:22:00,42.0,33.0,-100.00,North,357,0.0,0.0,71,0.00,,,0.01,0.000000,,2013-03-09 01:22:00,
2013-03-08 22:52:00,42.0,30.0,-100.00,North,350,0.0,0.0,63,-99.99,,,0.01,0.000000,,2013-03-09 03:52:00,
2013-03-08 23:01:00,42.0,30.0,-100.00,North,350,0.0,0.0,63,-99.99,,,0.01,0.000000,,2013-03-09 04:01:00,
2013-03-08 23:11:00,42.0,30.0,-100.00,North,350,0.0,0.0,63,-99.99,,,0.01,0.000000,,2013-03-09 04:11:00,
2013-03-08 23:22:00,42.0,30.0,-100.00,North,350,0.0,0.0,63,-99.99,,,0.01,0.000000,,2013-03-09 04:22:00,
2013-03-08 23:52:00,42.0,31.0,-100.00,NNW,338,0.0,0.0,64,0.00,,,0.01,0.000000,,2013-03-09 04:52:00,